Bellview, Texas
Current Conditions -  °F | °C
As of 6:15 AM on Monday 26 Jan 2015 (Local Time) from K11R Reporting Station
Clear Clear  
Wind Chill: 45°   Ceiling: Unl
Heat Index: 45°   Visibility: 10mi
Dew Point: 32°   Wind: 3mph
Humidity: 60%   Direction: 260°W
Pressure: 30.23"   Gusts: NA
Location:  29.9944°N, 96.2595°W
Report Text: K11R 261215Z AUTO 26003KT 10SM CLR 07/00 A3023 RMK AO2 T00730000
Loading
Personal Weather Stations






























Interactive Weather Map New forecast layout! Learn more

10-Day Weather Forecast

Advertisements
Track Severe Weather on mobile